createdAt,value
2019-05-07T00:00:35.643Z,5.67
2019-05-07T00:03:04.158Z,8.53
2019-05-07T00:05:33.286Z,6.93
2019-05-07T00:08:02.986Z,5.73
2019-05-07T00:10:33.087Z,7.10
2019-05-07T00:13:02.378Z,7.40
2019-05-07T00:15:32.781Z,7.10
2019-05-07T00:18:03.183Z,5.70
2019-05-07T00:20:32.724Z,12.37
2019-05-07T00:23:02.987Z,11.93
2019-05-07T00:25:32.846Z,7.20
2019-05-07T00:28:02.790Z,6.10
2019-05-07T00:30:33.149Z,7.63
2019-05-07T00:33:02.796Z,7.33
2019-05-07T00:35:35.746Z,12.40
2019-05-07T00:38:05.875Z,10.83
2019-05-07T00:40:36.073Z,7.63
2019-05-07T00:43:08.969Z,6.83
2019-05-07T00:45:45.299Z,7.77
2019-05-07T00:48:13.759Z,6.60
2019-05-07T00:50:43.889Z,9.97
2019-05-07T00:53:13.065Z,11.50
2019-05-07T00:55:42.299Z,7.23
2019-05-07T00:58:13.054Z,10.57
2019-05-07T01:00:42.072Z,7.83
2019-05-07T01:03:12.806Z,9.50
2019-05-07T01:05:43.206Z,12.13
2019-05-07T01:08:13.191Z,10.63
2019-05-07T01:10:42.115Z,6.33
2019-05-07T01:13:12.644Z,8.90
2019-05-07T01:15:42.987Z,8.70
2019-05-07T01:18:12.344Z,7.23
2019-05-07T01:20:42.349Z,6.57
2019-05-07T01:23:13.410Z,6.50
2019-05-07T01:25:43.066Z,9.90
2019-05-07T01:28:13.177Z,8.20
2019-05-07T01:30:43.184Z,6.90
2019-05-07T01:33:16.299Z,7.37
2019-05-07T01:35:46.431Z,8.37
2019-05-07T01:38:16.536Z,7.53
2019-05-07T01:40:45.023Z,8.07
2019-05-07T01:43:13.512Z,10.40
2019-05-07T01:45:49.384Z,7.77
2019-05-07T01:48:15.446Z,6.50
2019-05-07T01:50:43.891Z,7.37
2019-05-07T01:53:12.421Z,9.53
2019-05-07T01:55:42.820Z,9.77
2019-05-07T01:58:12.517Z,7.93
2019-05-07T02:00:42.384Z,12.33
2019-05-07T02:03:29.067Z,10.93
2019-05-07T02:06:02.231Z,10.67
2019-05-07T02:08:42.250Z,14.40
2019-05-07T02:11:21.834Z,11.53
2019-05-07T02:13:52.835Z,9.43
2019-05-07T02:16:21.822Z,7.63
2019-05-07T02:18:52.665Z,7.80
2019-05-07T02:21:22.086Z,10.87
2019-05-07T02:23:52.335Z,9.07
2019-05-07T02:26:22.622Z,14.23
2019-05-07T02:28:51.856Z,8.73
2019-05-07T02:31:23.326Z,10.17
2019-05-07T02:33:53.824Z,11.87
2019-05-07T02:36:23.692Z,10.30
2019-05-07T02:38:59.057Z,12.73
2019-05-07T02:41:33.111Z,16.63
2019-05-07T02:44:04.218Z,12.10
2019-05-07T02:46:39.401Z,11.60
2019-05-07T02:49:15.241Z,10.07
2019-05-07T02:51:57.119Z,10.80
2019-05-07T02:54:33.225Z,12.43
2019-05-07T02:57:03.114Z,13.23
2019-05-07T02:59:33.594Z,12.20
2019-05-07T03:02:03.583Z,16.87
2019-05-07T03:04:33.393Z,11.60
2019-05-07T03:07:04.000Z,14.33
2019-05-07T03:09:32.942Z,13.33
2019-05-07T03:12:03.970Z,11.90
2019-05-07T03:14:32.397Z,12.07
2019-05-07T03:17:03.062Z,13.60
2019-05-07T03:19:33.152Z,12.57
2019-05-07T03:22:03.940Z,13.43
2019-05-07T03:24:34.485Z,14.70
2019-05-07T03:27:03.452Z,12.57
2019-05-07T03:29:33.328Z,13.73
2019-05-07T03:32:20.158Z,22.03
2019-05-07T03:35:07.610Z,13.97
2019-05-07T03:37:37.070Z,18.93
2019-05-07T03:40:07.227Z,16.00
2019-05-07T03:42:35.740Z,16.10
2019-05-07T03:45:07.084Z,16.47
2019-05-07T03:47:40.144Z,14.50
2019-05-07T03:50:14.222Z,16.00
2019-05-07T03:52:42.803Z,16.93
2019-05-07T03:55:14.129Z,13.43
2019-05-07T03:57:43.610Z,15.10
2019-05-07T04:00:13.115Z,14.13
2019-05-07T04:02:43.732Z,16.53
2019-05-07T04:05:13.990Z,17.97
2019-05-07T04:07:43.444Z,15.60
2019-05-07T04:10:14.961Z,18.10
2019-05-07T04:12:44.276Z,17.67
2019-05-07T04:15:14.637Z,15.43
2019-05-07T04:17:43.126Z,16.47
2019-05-07T04:20:13.431Z,17.77
2019-05-07T04:22:43.431Z,15.33
2019-05-07T04:25:16.913Z,15.43
2019-05-07T04:27:52.688Z,15.43
2019-05-07T04:30:23.316Z,18.57
2019-05-07T04:32:53.118Z,17.57
2019-05-07T04:35:38.754Z,16.27
2019-05-07T04:38:07.532Z,18.03
2019-05-07T04:40:36.031Z,16.10
2019-05-07T04:43:04.539Z,18.20
2019-05-07T04:45:34.010Z,17.10
2019-05-07T04:48:03.195Z,15.97
2019-05-07T04:50:42.671Z,16.47
2019-05-07T04:53:03.751Z,15.83
2019-05-07T04:55:33.519Z,14.63
2019-05-07T04:58:02.958Z,15.40
2019-05-07T05:00:33.600Z,13.17
2019-05-07T05:03:04.123Z,16.87
2019-05-07T05:05:33.107Z,14.77
2019-05-07T05:08:03.884Z,15.67
2019-05-07T05:10:33.745Z,22.00
2019-05-07T05:13:03.240Z,18.70
2019-05-07T05:15:32.192Z,16.37
2019-05-07T05:18:02.613Z,21.53
2019-05-07T05:20:48.985Z,13.70
2019-05-07T05:23:22.778Z,26.47
2019-05-07T05:25:52.234Z,17.83
2019-05-07T05:28:21.845Z,18.23
2019-05-07T05:30:52.769Z,15.80
2019-05-07T05:33:23.494Z,16.87
2019-05-07T05:35:52.533Z,16.70
2019-05-07T05:38:22.132Z,19.40
2019-05-07T05:40:52.046Z,14.53
2019-05-07T05:43:22.529Z,16.87
2019-05-07T05:45:53.896Z,17.73
2019-05-07T05:48:22.581Z,17.17
2019-05-07T05:50:53.676Z,13.60
2019-05-07T05:53:40.196Z,13.67
2019-05-07T05:56:11.848Z,14.47
2019-05-07T05:58:56.873Z,16.97
2019-05-07T06:01:27.372Z,15.17
2019-05-07T06:04:12.542Z,15.27
2019-05-07T06:06:42.753Z,12.93
2019-05-07T06:09:28.879Z,15.60
2019-05-07T06:12:15.216Z,21.47
2019-05-07T06:14:45.358Z,11.73
2019-05-07T06:17:15.568Z,10.53
2019-05-07T06:20:02.756Z,10.63
2019-05-07T06:22:48.686Z,15.63
2019-05-07T06:25:19.240Z,10.07
2019-05-07T06:27:47.701Z,15.40
2019-05-07T06:30:17.603Z,9.83
2019-05-07T06:32:46.060Z,14.60
2019-05-07T06:35:14.572Z,15.70
2019-05-07T06:37:43.997Z,13.80
2019-05-07T06:40:14.676Z,11.97
2019-05-07T06:42:47.735Z,12.33
2019-05-07T06:45:18.358Z,11.33
2019-05-07T06:47:46.797Z,9.17
2019-05-07T06:50:15.293Z,12.70
2019-05-07T06:52:43.803Z,9.00
2019-05-07T06:55:13.204Z,14.47
2019-05-07T06:57:42.577Z,12.63
2019-05-07T07:00:13.392Z,10.73
2019-05-07T07:02:43.476Z,12.93
2019-05-07T07:05:13.760Z,17.03
2019-05-07T07:07:52.893Z,11.67
2019-05-07T07:10:22.998Z,12.40
2019-05-07T07:12:52.962Z,12.53
2019-05-07T07:15:23.198Z,11.47
2019-05-07T07:17:52.396Z,18.13
2019-05-07T07:20:21.853Z,8.10
2019-05-07T07:22:52.071Z,8.47
2019-05-07T07:25:22.737Z,7.23
2019-05-07T07:27:52.057Z,13.50
2019-05-07T07:30:22.546Z,7.60
2019-05-07T07:32:52.642Z,9.93
2019-05-07T07:35:22.580Z,12.60
2019-05-07T07:37:53.058Z,5.80
2019-05-07T07:40:32.721Z,11.60
2019-05-07T07:43:04.859Z,9.23
2019-05-07T07:45:32.416Z,10.30
2019-05-07T07:48:02.282Z,9.63
2019-05-07T07:50:33.046Z,10.67
2019-05-07T07:53:02.527Z,7.30
2019-05-07T07:55:33.059Z,4.20
2019-05-07T07:58:03.345Z,9.37
2019-05-07T08:00:36.674Z,10.80
2019-05-07T08:03:06.801Z,5.93
2019-05-07T08:05:35.283Z,4.10
2019-05-07T08:08:03.995Z,6.90
2019-05-07T08:10:32.700Z,12.27
2019-05-07T08:13:01.998Z,6.70
2019-05-07T08:15:32.867Z,7.30
2019-05-07T08:18:02.878Z,8.50
2019-05-07T08:20:32.656Z,8.57
2019-05-07T08:23:02.991Z,6.30
2019-05-07T08:25:49.467Z,7.80
2019-05-07T08:28:19.086Z,6.37
2019-05-07T08:31:05.677Z,11.90
2019-05-07T08:33:36.361Z,13.70
2019-05-07T08:36:08.863Z,9.93
2019-05-07T08:38:52.851Z,9.40
2019-05-07T08:41:22.589Z,14.23
2019-05-07T08:44:07.301Z,5.23
2019-05-07T08:46:37.084Z,4.27
2019-05-07T08:49:07.349Z,4.60
2019-05-07T08:51:35.875Z,6.80
2019-05-07T08:54:06.869Z,6.23
2019-05-07T08:56:36.710Z,7.23
2019-05-07T08:59:06.195Z,9.03
2019-05-07T09:01:36.646Z,8.10
2019-05-07T09:04:05.819Z,8.70
2019-05-07T09:06:34.351Z,4.37
2019-05-07T09:09:06.678Z,14.63
2019-05-07T09:11:35.189Z,10.10
2019-05-07T09:14:03.692Z,2.57
2019-05-07T09:16:32.162Z,4.80
2019-05-07T09:19:02.175Z,9.00
2019-05-07T09:21:32.213Z,5.97
2019-05-07T09:24:02.552Z,3.67
2019-05-07T09:26:32.971Z,8.23
2019-05-07T09:29:03.161Z,5.37
2019-05-07T09:31:36.243Z,6.60
2019-05-07T09:34:04.817Z,3.10
2019-05-07T09:36:34.931Z,7.40
2019-05-07T09:39:05.003Z,3.90
2019-05-07T09:41:33.450Z,5.97
2019-05-07T09:44:03.168Z,4.10
2019-05-07T09:46:32.535Z,3.20
2019-05-07T09:49:03.084Z,5.53
2019-05-07T09:51:32.294Z,4.47
2019-05-07T09:54:02.537Z,5.17
2019-05-07T09:56:31.975Z,3.20
2019-05-07T09:59:02.221Z,8.27
2019-05-07T10:01:31.932Z,3.07
2019-05-07T10:04:02.638Z,5.70
2019-05-07T10:06:32.051Z,5.37
2019-05-07T10:09:02.705Z,3.80
2019-05-07T10:11:35.404Z,4.60
2019-05-07T10:14:09.098Z,6.67
2019-05-07T10:16:45.205Z,5.17
2019-05-07T10:19:13.896Z,10.20
2019-05-07T10:21:42.588Z,4.70
2019-05-07T10:24:12.873Z,9.70
2019-05-07T10:26:42.857Z,5.73
2019-05-07T10:29:12.629Z,8.43
2019-05-07T10:31:42.412Z,5.30
2019-05-07T10:34:12.281Z,5.33
2019-05-07T10:36:42.155Z,5.77
2019-05-07T10:39:12.734Z,2.80
2019-05-07T10:41:42.496Z,4.03
2019-05-07T10:44:12.062Z,5.90
2019-05-07T10:46:42.325Z,4.17
2019-05-07T10:49:18.615Z,3.67
2019-05-07T10:51:47.195Z,7.23
2019-05-07T10:54:15.672Z,6.53
2019-05-07T10:56:44.214Z,12.17
2019-05-07T10:59:12.694Z,6.60
2019-05-07T11:01:45.314Z,5.60
2019-05-07T11:04:13.838Z,8.67
2019-05-07T11:06:42.331Z,6.63
2019-05-07T11:09:10.884Z,7.80
2019-05-07T11:11:39.375Z,5.93
2019-05-07T11:14:07.975Z,10.57
2019-05-07T11:16:38.170Z,4.90
2019-05-07T11:19:06.752Z,5.90
2019-05-07T11:21:35.260Z,6.20
2019-05-07T11:24:03.865Z,6.50
2019-05-07T11:26:32.973Z,3.23
2019-05-07T11:29:02.378Z,5.80
2019-05-07T11:31:36.682Z,5.50
2019-05-07T11:34:05.241Z,5.30
2019-05-07T11:36:34.465Z,3.53
2019-05-07T11:39:04.818Z,12.40
2019-05-07T11:41:47.177Z,4.37
2019-05-07T11:44:17.292Z,8.93
2019-05-07T11:47:03.571Z,7.33
2019-05-07T11:49:49.929Z,2.20
2019-05-07T11:52:19.272Z,5.23
2019-05-07T11:54:47.735Z,2.60
2019-05-07T11:57:16.222Z,5.47
2019-05-07T11:59:44.646Z,4.90
2019-05-07T12:02:13.224Z,6.50
2019-05-07T12:04:42.214Z,9.93
2019-05-07T12:07:11.893Z,5.83
2019-05-07T12:09:40.532Z,5.47
2019-05-07T12:12:09.076Z,3.70
2019-05-07T12:14:37.520Z,3.73
2019-05-07T12:17:06.081Z,4.20
2019-05-07T12:19:34.604Z,4.33
2019-05-07T12:22:04.179Z,4.10
2019-05-07T12:24:32.906Z,2.37
2019-05-07T12:27:02.669Z,2.13
2019-05-07T12:29:32.259Z,2.60
2019-05-07T12:32:18.872Z,3.53
2019-05-07T12:34:48.979Z,3.47
2019-05-07T12:37:17.442Z,4.67
2019-05-07T12:39:45.903Z,3.47
2019-05-07T12:42:14.351Z,4.10
2019-05-07T12:44:43.356Z,4.80
2019-05-07T12:47:12.161Z,1.77
2019-05-07T12:49:42.739Z,3.40
2019-05-07T12:52:12.773Z,3.57
2019-05-07T12:54:48.633Z,6.10
2019-05-07T12:57:17.175Z,3.93
2019-05-07T12:59:45.619Z,2.90
2019-05-07T13:02:38.113Z,1.90
2019-05-07T13:05:02.947Z,3.23
2019-05-07T13:07:33.350Z,1.80
2019-05-07T13:10:02.640Z,2.20
2019-05-07T13:12:32.169Z,3.80
2019-05-07T13:15:02.997Z,2.60
2019-05-07T13:17:31.088Z,3.63
2019-05-07T13:20:01.617Z,5.70
2019-05-07T13:22:29.767Z,2.90
2019-05-07T13:24:58.291Z,4.00
2019-05-07T13:27:26.763Z,3.80
2019-05-07T13:29:55.293Z,2.80
2019-05-07T13:32:24.912Z,3.83
2019-05-07T13:34:54.007Z,4.57
2019-05-07T13:37:24.516Z,2.97
2019-05-07T13:39:54.847Z,4.60
2019-05-07T13:42:43.502Z,6.03
2019-05-07T13:45:13.199Z,5.37
2019-05-07T13:47:41.667Z,6.27
2019-05-07T13:50:11.917Z,8.47
2019-05-07T13:52:43.148Z,9.57
2019-05-07T13:55:12.953Z,3.07
2019-05-07T13:57:41.707Z,10.83
2019-05-07T14:00:12.974Z,4.53
2019-05-07T14:02:42.176Z,3.97
2019-05-07T14:05:13.985Z,7.43
2019-05-07T14:07:43.246Z,10.83
2019-05-07T14:10:12.705Z,4.63
2019-05-07T14:12:42.537Z,5.00
2019-05-07T14:15:12.551Z,4.47
2019-05-07T14:17:41.198Z,4.63
2019-05-07T14:20:09.710Z,4.47
2019-05-07T14:22:38.163Z,4.60
2019-05-07T14:25:07.677Z,3.90
2019-05-07T14:27:36.147Z,3.33
2019-05-07T14:30:07.389Z,12.43
2019-05-07T14:32:53.448Z,4.90
2019-05-07T14:35:23.553Z,4.47
2019-05-07T14:37:56.369Z,3.43
2019-05-07T14:40:25.162Z,3.83
2019-05-07T14:42:58.372Z,3.40
2019-05-07T14:45:26.847Z,4.40
2019-05-07T14:47:55.397Z,3.73
2019-05-07T14:50:23.916Z,5.17
2019-05-07T14:52:55.221Z,3.93
2019-05-07T14:55:22.679Z,38.87
2019-05-07T14:57:52.433Z,6.47
2019-05-07T15:00:22.548Z,6.63
2019-05-07T15:02:52.477Z,3.03
2019-05-07T15:05:22.360Z,6.67
2019-05-07T15:07:51.191Z,3.47
2019-05-07T15:10:22.021Z,4.73
2019-05-07T15:12:52.197Z,8.43
2019-05-07T15:15:21.931Z,2.87
2019-05-07T15:18:04.079Z,6.63
2019-05-07T15:20:33.122Z,5.73
2019-05-07T15:23:04.699Z,5.60
2019-05-07T15:25:33.183Z,5.07
2019-05-07T15:28:01.915Z,3.50
2019-05-07T15:30:32.579Z,5.80
2019-05-07T15:33:02.262Z,2.63
2019-05-07T15:35:32.029Z,4.97
2019-05-07T15:38:02.493Z,7.77
2019-05-07T15:40:32.950Z,2.73
2019-05-07T15:43:02.157Z,6.43
2019-05-07T15:45:31.037Z,3.97
2019-05-07T15:47:59.507Z,5.63
2019-05-07T15:50:32.246Z,6.50
2019-05-07T15:53:05.693Z,8.60
2019-05-07T15:55:34.233Z,5.73
2019-05-07T15:58:02.897Z,5.63
2019-05-07T16:00:33.590Z,3.00
2019-05-07T16:03:06.611Z,4.13
2019-05-07T16:05:35.228Z,2.50
2019-05-07T16:08:04.751Z,5.83
2019-05-07T16:10:33.306Z,4.30
2019-05-07T16:13:01.930Z,3.40
2019-05-07T16:15:31.978Z,4.87
2019-05-07T16:18:02.894Z,3.30
2019-05-07T16:20:32.602Z,6.13
2019-05-07T16:23:14.418Z,6.93
2019-05-07T16:25:33.240Z,3.10
2019-05-07T16:28:04.750Z,4.57
2019-05-07T16:30:32.419Z,3.33
2019-05-07T16:33:02.119Z,3.90
2019-05-07T16:35:32.039Z,4.10
2019-05-07T16:38:00.773Z,4.43
2019-05-07T16:40:29.255Z,3.53
2019-05-07T16:42:57.739Z,3.47
2019-05-07T16:45:26.185Z,3.60
2019-05-07T16:47:54.789Z,2.73
2019-05-07T16:50:23.443Z,6.77
2019-05-07T16:52:52.517Z,8.00
2019-05-07T16:55:23.109Z,4.07
2019-05-07T16:58:01.903Z,5.20
2019-05-07T17:00:34.877Z,3.10
2019-05-07T17:03:05.058Z,5.07
2019-05-07T17:05:33.522Z,4.97
2019-05-07T17:08:03.753Z,5.10
2019-05-07T17:10:32.217Z,2.27
2019-05-07T17:13:02.779Z,3.37
2019-05-07T17:15:31.344Z,7.37
2019-05-07T17:17:59.819Z,2.50
2019-05-07T17:20:28.553Z,3.50
2019-05-07T17:22:57.765Z,4.00
2019-05-07T17:25:38.287Z,1.80
2019-05-07T17:28:12.472Z,8.57
2019-05-07T17:30:42.074Z,9.87
2019-05-07T17:33:12.605Z,3.83
2019-05-07T17:35:42.363Z,3.93
2019-05-07T17:38:12.887Z,3.80
2019-05-07T17:40:42.396Z,4.23
2019-05-07T17:43:12.317Z,5.50
2019-05-07T17:45:42.814Z,3.67
2019-05-07T17:48:12.334Z,5.23
2019-05-07T17:50:45.605Z,9.30
2019-05-07T17:53:14.167Z,4.83
2019-05-07T17:55:42.809Z,3.73
2019-05-07T17:58:12.920Z,8.30
2019-05-07T18:00:43.864Z,3.90
2019-05-07T18:03:32.667Z,3.47
2019-05-07T18:06:02.416Z,5.83
2019-05-07T18:08:32.534Z,4.23
2019-05-07T18:11:02.517Z,6.83
2019-05-07T18:13:32.265Z,7.43
2019-05-07T18:16:02.947Z,3.10
2019-05-07T18:18:32.745Z,3.63
2019-05-07T18:21:02.427Z,3.83
2019-05-07T18:23:32.451Z,3.97
2019-05-07T18:26:01.016Z,4.70
2019-05-07T18:28:29.786Z,5.80
2019-05-07T18:30:59.015Z,3.03
2019-05-07T18:33:33.599Z,5.10
2019-05-07T18:36:02.851Z,3.63
2019-05-07T18:38:32.911Z,5.90
2019-05-07T18:41:02.850Z,4.43
2019-05-07T18:43:33.245Z,3.93
2019-05-07T18:46:02.327Z,2.40
2019-05-07T18:48:31.411Z,9.10
2019-05-07T18:51:00.047Z,9.80
2019-05-07T18:53:28.535Z,7.90
2019-05-07T18:55:57.109Z,9.23
2019-05-07T18:58:25.722Z,5.00
2019-05-07T19:00:55.871Z,11.67
2019-05-07T19:03:25.463Z,3.63
2019-05-07T19:05:55.351Z,5.20
2019-05-07T19:08:23.842Z,13.13
2019-05-07T19:10:52.356Z,8.80
2019-05-07T19:13:22.216Z,5.20
2019-05-07T19:15:53.014Z,6.50
2019-05-07T19:18:22.795Z,9.90
2019-05-07T19:20:52.984Z,20.37
2019-05-07T19:23:22.304Z,6.80
2019-05-07T19:25:52.233Z,6.70
2019-05-07T19:28:22.430Z,10.20
2019-05-07T19:30:52.825Z,10.83
2019-05-07T19:33:26.715Z,10.93
2019-05-07T19:35:52.937Z,10.47
2019-05-07T19:38:21.459Z,8.13
2019-05-07T19:40:50.043Z,11.93
2019-05-07T19:43:18.487Z,8.40
2019-05-07T19:45:47.210Z,15.47
2019-05-07T19:48:15.643Z,7.90
2019-05-07T19:50:44.135Z,10.43
2019-05-07T19:53:12.686Z,8.07
2019-05-07T19:56:01.885Z,5.63
2019-05-07T19:58:29.665Z,7.23
2019-05-07T20:00:58.297Z,5.67
2019-05-07T20:03:26.779Z,7.50
2019-05-07T20:05:55.262Z,9.00
2019-05-07T20:08:23.737Z,7.13
2019-05-07T20:10:59.844Z,7.50
2019-05-07T20:13:28.343Z,7.47
2019-05-07T20:16:02.869Z,11.27
2019-05-07T20:18:32.657Z,9.73
2019-05-07T20:21:02.711Z,8.80
2019-05-07T20:23:40.209Z,8.67
2019-05-07T20:26:08.995Z,11.80
2019-05-07T20:28:37.570Z,8.00
2019-05-07T20:31:06.276Z,10.90
2019-05-07T20:33:34.789Z,11.57
2019-05-07T20:36:03.907Z,16.83
2019-05-07T20:38:32.354Z,14.90
2019-05-07T20:41:02.069Z,11.27
2019-05-07T20:43:32.603Z,16.30
2019-05-07T20:46:02.625Z,14.70
2019-05-07T20:48:32.488Z,14.13
2019-05-07T20:51:01.537Z,12.63
2019-05-07T20:53:48.083Z,13.03
2019-05-07T20:56:18.267Z,15.90
2019-05-07T20:58:46.706Z,13.07
2019-05-07T21:01:15.260Z,23.50
2019-05-07T21:03:43.814Z,12.80
2019-05-07T21:06:12.308Z,14.60
2019-05-07T21:08:42.731Z,21.33
2019-05-07T21:11:11.937Z,16.97
2019-05-07T21:13:44.091Z,18.03
2019-05-07T21:16:12.678Z,11.27
2019-05-07T21:18:42.128Z,11.47
2019-05-07T21:21:12.495Z,11.47
2019-05-07T21:23:43.184Z,14.60
2019-05-07T21:26:13.093Z,9.83
2019-05-07T21:28:43.142Z,16.83
2019-05-07T21:31:12.187Z,10.03
2019-05-07T21:33:42.836Z,12.27
2019-05-07T21:36:12.124Z,11.80
2019-05-07T21:38:42.530Z,11.40
2019-05-07T21:41:12.890Z,14.30
2019-05-07T21:43:44.240Z,11.30
2019-05-07T21:46:12.833Z,10.70
2019-05-07T21:48:41.637Z,13.00
2019-05-07T21:51:12.249Z,10.87
2019-05-07T21:53:42.971Z,10.53
2019-05-07T21:56:31.378Z,11.93
2019-05-07T21:59:03.041Z,10.90
2019-05-07T22:01:35.832Z,8.40
2019-05-07T22:04:04.673Z,16.40
2019-05-07T22:06:33.144Z,11.40
2019-05-07T22:09:02.139Z,12.10
2019-05-07T22:11:32.289Z,10.17
2019-05-07T22:14:02.099Z,13.27
2019-05-07T22:16:32.799Z,14.20
2019-05-07T22:19:02.691Z,8.23
2019-05-07T22:21:33.961Z,12.87
2019-05-07T22:24:03.030Z,17.53
2019-05-07T22:26:32.346Z,11.80
2019-05-07T22:29:03.144Z,12.47
2019-05-07T22:31:32.839Z,17.17
2019-05-07T22:34:19.193Z,21.30
2019-05-07T22:36:47.681Z,23.00
2019-05-07T22:39:16.136Z,23.87
2019-05-07T22:41:44.646Z,24.57
2019-05-07T22:44:13.087Z,20.10
2019-05-07T22:46:42.302Z,19.40
2019-05-07T22:49:12.247Z,22.70
2019-05-07T22:51:40.982Z,14.50
2019-05-07T22:54:11.707Z,18.67
2019-05-07T22:56:59.620Z,18.27
2019-05-07T22:59:28.220Z,15.07
2019-05-07T23:01:56.665Z,16.87
2019-05-07T23:04:25.187Z,12.33
2019-05-07T23:06:53.642Z,11.73
2019-05-07T23:09:22.633Z,13.93
2019-05-07T23:11:52.651Z,14.43
2019-05-07T23:14:22.546Z,9.43
2019-05-07T23:16:54.963Z,14.50
2019-05-07T23:19:22.068Z,10.23
2019-05-07T23:21:52.130Z,15.53
2019-05-07T23:24:22.661Z,11.00
2019-05-07T23:26:53.292Z,12.93
2019-05-07T23:29:22.544Z,10.63
2019-05-07T23:31:52.962Z,12.87
2019-05-07T23:34:22.160Z,12.20
2019-05-07T23:36:53.300Z,12.60
2019-05-07T23:39:22.869Z,15.53
2019-05-07T23:41:52.969Z,11.27
2019-05-07T23:44:22.858Z,10.67
2019-05-07T23:46:52.062Z,9.80
2019-05-07T23:49:22.977Z,15.90
2019-05-07T23:51:52.804Z,14.73
2019-05-07T23:54:22.938Z,9.47
2019-05-07T23:57:05.391Z,11.40
2019-05-07T23:59:22.142Z,11.87
